sensor_id;sensor_type;location;lat;lon;timestamp;P1;durP1;ratioP1;P2;durP2;ratioP2
16579;SDS011;8402;51.466;6.806;2022-11-15T00:01:09;12.17;;;6.70;;
16579;SDS011;8402;51.466;6.806;2022-11-15T00:03:43;11.33;;;5.97;;
16579;SDS011;8402;51.466;6.806;2022-11-15T00:06:11;14.87;;;6.50;;
16579;SDS011;8402;51.466;6.806;2022-11-15T00:08:39;12.83;;;6.10;;
16579;SDS011;8402;51.466;6.806;2022-11-15T00:11:08;12.63;;;6.37;;
16579;SDS011;8402;51.466;6.806;2022-11-15T00:13:39;10.47;;;6.17;;
16579;SDS011;8402;51.466;6.806;2022-11-15T00:16:08;10.83;;;6.60;;
16579;SDS011;8402;51.466;6.806;2022-11-15T00:18:37;13.23;;;6.50;;
16579;SDS011;8402;51.466;6.806;2022-11-15T00:21:06;11.10;;;5.97;;
16579;SDS011;8402;51.466;6.806;2022-11-15T00:23:35;14.20;;;6.50;;
16579;SDS011;8402;51.466;6.806;2022-11-15T00:26:04;8.67;;;5.83;;
16579;SDS011;8402;51.466;6.806;2022-11-15T00:28:32;9.13;;;5.47;;
16579;SDS011;8402;51.466;6.806;2022-11-15T00:31:02;10.70;;;6.10;;
16579;SDS011;8402;51.466;6.806;2022-11-15T00:33:30;9.10;;;5.37;;
16579;SDS011;8402;51.466;6.806;2022-11-15T00:35:59;11.57;;;6.10;;
16579;SDS011;8402;51.466;6.806;2022-11-15T00:38:30;9.97;;;6.07;;
16579;SDS011;8402;51.466;6.806;2022-11-15T00:40:59;10.37;;;6.07;;
16579;SDS011;8402;51.466;6.806;2022-11-15T00:43:34;13.20;;;6.70;;
16579;SDS011;8402;51.466;6.806;2022-11-15T00:46:04;12.07;;;6.03;;
16579;SDS011;8402;51.466;6.806;2022-11-15T00:48:32;11.50;;;5.93;;
16579;SDS011;8402;51.466;6.806;2022-11-15T00:50:59;8.93;;;5.83;;
16579;SDS011;8402;51.466;6.806;2022-11-15T00:53:27;8.60;;;5.70;;
16579;SDS011;8402;51.466;6.806;2022-11-15T00:55:56;9.93;;;6.27;;
16579;SDS011;8402;51.466;6.806;2022-11-15T00:58:23;11.50;;;6.33;;
16579;SDS011;8402;51.466;6.806;2022-11-15T01:00:51;9.80;;;6.27;;
16579;SDS011;8402;51.466;6.806;2022-11-15T01:03:21;10.40;;;6.03;;
16579;SDS011;8402;51.466;6.806;2022-11-15T01:05:49;10.80;;;6.13;;
16579;SDS011;8402;51.466;6.806;2022-11-15T01:08:16;13.43;;;5.90;;
16579;SDS011;8402;51.466;6.806;2022-11-15T01:10:44;11.13;;;6.17;;
16579;SDS011;8402;51.466;6.806;2022-11-15T01:13:12;10.73;;;5.57;;
16579;SDS011;8402;51.466;6.806;2022-11-15T01:15:40;10.07;;;5.23;;
16579;SDS011;8402;51.466;6.806;2022-11-15T01:18:09;9.40;;;5.67;;
16579;SDS011;8402;51.466;6.806;2022-11-15T01:20:40;14.90;;;6.20;;
16579;SDS011;8402;51.466;6.806;2022-11-15T01:23:09;11.23;;;6.10;;
16579;SDS011;8402;51.466;6.806;2022-11-15T01:25:37;9.03;;;5.93;;
16579;SDS011;8402;51.466;6.806;2022-11-15T01:28:04;9.87;;;6.50;;
16579;SDS011;8402;51.466;6.806;2022-11-15T01:30:32;10.07;;;5.97;;
16579;SDS011;8402;51.466;6.806;2022-11-15T01:33:00;11.83;;;6.37;;
16579;SDS011;8402;51.466;6.806;2022-11-15T01:35:28;10.57;;;5.53;;
16579;SDS011;8402;51.466;6.806;2022-11-15T01:37:57;9.63;;;5.60;;
16579;SDS011;8402;51.466;6.806;2022-11-15T01:40:25;10.83;;;5.73;;
16579;SDS011;8402;51.466;6.806;2022-11-15T01:42:53;12.47;;;6.03;;
16579;SDS011;8402;51.466;6.806;2022-11-15T01:45:21;13.87;;;6.03;;
16579;SDS011;8402;51.466;6.806;2022-11-15T01:47:50;9.03;;;5.17;;
16579;SDS011;8402;51.466;6.806;2022-11-15T01:50:22;10.73;;;5.60;;
16579;SDS011;8402;51.466;6.806;2022-11-15T01:52:54;11.23;;;5.83;;
16579;SDS011;8402;51.466;6.806;2022-11-15T01:55:25;11.27;;;5.33;;
16579;SDS011;8402;51.466;6.806;2022-11-15T01:57:56;10.13;;;5.67;;
16579;SDS011;8402;51.466;6.806;2022-11-15T02:00:27;9.23;;;5.17;;
16579;SDS011;8402;51.466;6.806;2022-11-15T02:02:56;8.87;;;5.50;;
16579;SDS011;8402;51.466;6.806;2022-11-15T02:05:24;10.20;;;5.63;;
16579;SDS011;8402;51.466;6.806;2022-11-15T02:07:53;9.77;;;5.20;;
16579;SDS011;8402;51.466;6.806;2022-11-15T02:10:22;11.13;;;5.20;;
16579;SDS011;8402;51.466;6.806;2022-11-15T02:12:52;9.40;;;5.33;;
16579;SDS011;8402;51.466;6.806;2022-11-15T02:15:20;8.87;;;5.03;;
16579;SDS011;8402;51.466;6.806;2022-11-15T02:17:54;12.70;;;5.77;;
16579;SDS011;8402;51.466;6.806;2022-11-15T02:20:45;9.40;;;5.47;;
16579;SDS011;8402;51.466;6.806;2022-11-15T02:23:39;10.30;;;5.87;;
16579;SDS011;8402;51.466;6.806;2022-11-15T02:29:26;6.90;;;5.00;;
16579;SDS011;8402;51.466;6.806;2022-11-15T02:32:09;7.57;;;4.67;;
16579;SDS011;8402;51.466;6.806;2022-11-15T02:34:47;9.23;;;5.07;;
16579;SDS011;8402;51.466;6.806;2022-11-15T02:37:25;11.77;;;4.60;;
16579;SDS011;8402;51.466;6.806;2022-11-15T02:39:59;9.63;;;5.33;;
16579;SDS011;8402;51.466;6.806;2022-11-15T02:42:35;8.47;;;5.13;;
16579;SDS011;8402;51.466;6.806;2022-11-15T02:45:33;9.47;;;5.17;;
16579;SDS011;8402;51.466;6.806;2022-11-15T02:48:06;8.23;;;5.20;;
16579;SDS011;8402;51.466;6.806;2022-11-15T02:50:36;8.07;;;5.03;;
16579;SDS011;8402;51.466;6.806;2022-11-15T02:53:05;12.00;;;5.37;;
16579;SDS011;8402;51.466;6.806;2022-11-15T02:55:33;8.17;;;4.40;;
16579;SDS011;8402;51.466;6.806;2022-11-15T02:58:06;13.90;;;5.63;;
16579;SDS011;8402;51.466;6.806;2022-11-15T03:00:52;11.07;;;5.87;;
16579;SDS011;8402;51.466;6.806;2022-11-15T03:03:35;9.90;;;5.03;;
16579;SDS011;8402;51.466;6.806;2022-11-15T03:06:15;9.47;;;5.03;;
16579;SDS011;8402;51.466;6.806;2022-11-15T03:08:53;10.37;;;5.30;;
16579;SDS011;8402;51.466;6.806;2022-11-15T03:11:29;8.80;;;5.27;;
16579;SDS011;8402;51.466;6.806;2022-11-15T03:14:04;8.80;;;5.37;;
16579;SDS011;8402;51.466;6.806;2022-11-15T03:16:40;8.63;;;4.90;;
16579;SDS011;8402;51.466;6.806;2022-11-15T03:19:16;8.27;;;5.60;;
16579;SDS011;8402;51.466;6.806;2022-11-15T03:21:51;9.50;;;5.93;;
16579;SDS011;8402;51.466;6.806;2022-11-15T03:24:22;10.10;;;5.83;;
16579;SDS011;8402;51.466;6.806;2022-11-15T03:26:52;10.93;;;5.77;;
16579;SDS011;8402;51.466;6.806;2022-11-15T03:29:22;9.30;;;5.80;;
16579;SDS011;8402;51.466;6.806;2022-11-15T03:31:55;11.43;;;5.50;;
16579;SDS011;8402;51.466;6.806;2022-11-15T03:34:29;10.30;;;6.03;;
16579;SDS011;8402;51.466;6.806;2022-11-15T03:37:02;12.17;;;5.73;;
16579;SDS011;8402;51.466;6.806;2022-11-15T03:39:31;9.73;;;6.30;;
16579;SDS011;8402;51.466;6.806;2022-11-15T03:42:04;7.43;;;5.10;;
16579;SDS011;8402;51.466;6.806;2022-11-15T03:44:41;10.23;;;5.60;;
16579;SDS011;8402;51.466;6.806;2022-11-15T03:47:18;14.40;;;6.17;;
16579;SDS011;8402;51.466;6.806;2022-11-15T03:49:52;10.70;;;4.97;;
16579;SDS011;8402;51.466;6.806;2022-11-15T03:52:26;10.00;;;5.67;;
16579;SDS011;8402;51.466;6.806;2022-11-15T03:54:58;9.57;;;5.57;;
16579;SDS011;8402;51.466;6.806;2022-11-15T03:57:28;10.33;;;4.93;;
16579;SDS011;8402;51.466;6.806;2022-11-15T03:59:56;12.70;;;5.27;;
16579;SDS011;8402;51.466;6.806;2022-11-15T04:02:24;9.40;;;4.87;;
16579;SDS011;8402;51.466;6.806;2022-11-15T04:04:53;9.97;;;4.63;;
16579;SDS011;8402;51.466;6.806;2022-11-15T04:07:21;6.60;;;4.20;;
16579;SDS011;8402;51.466;6.806;2022-11-15T04:09:50;7.43;;;4.80;;
16579;SDS011;8402;51.466;6.806;2022-11-15T04:12:30;9.27;;;5.10;;
16579;SDS011;8402;51.466;6.806;2022-11-15T04:14:59;8.47;;;4.83;;
16579;SDS011;8402;51.466;6.806;2022-11-15T04:17:35;12.27;;;5.10;;
16579;SDS011;8402;51.466;6.806;2022-11-15T04:20:13;7.27;;;4.70;;
16579;SDS011;8402;51.466;6.806;2022-11-15T04:23:00;7.60;;;4.23;;
16579;SDS011;8402;51.466;6.806;2022-11-15T04:25:46;7.77;;;4.27;;
16579;SDS011;8402;51.466;6.806;2022-11-15T04:28:17;7.40;;;4.47;;
16579;SDS011;8402;51.466;6.806;2022-11-15T04:30:45;11.00;;;4.33;;
16579;SDS011;8402;51.466;6.806;2022-11-15T04:33:13;9.30;;;4.90;;
16579;SDS011;8402;51.466;6.806;2022-11-15T04:35:43;5.70;;;4.17;;
16579;SDS011;8402;51.466;6.806;2022-11-15T04:38:31;7.60;;;4.30;;
16579;SDS011;8402;51.466;6.806;2022-11-15T04:40:58;11.43;;;4.77;;
16579;SDS011;8402;51.466;6.806;2022-11-15T04:43:26;7.27;;;4.50;;
16579;SDS011;8402;51.466;6.806;2022-11-15T04:45:54;7.77;;;4.20;;
16579;SDS011;8402;51.466;6.806;2022-11-15T04:48:22;8.20;;;4.20;;
16579;SDS011;8402;51.466;6.806;2022-11-15T04:50:51;5.80;;;3.93;;
16579;SDS011;8402;51.466;6.806;2022-11-15T04:53:19;6.80;;;4.63;;
16579;SDS011;8402;51.466;6.806;2022-11-15T04:55:47;9.30;;;4.50;;
16579;SDS011;8402;51.466;6.806;2022-11-15T04:58:15;6.27;;;3.87;;
16579;SDS011;8402;51.466;6.806;2022-11-15T05:00:42;6.97;;;3.80;;
16579;SDS011;8402;51.466;6.806;2022-11-15T05:03:10;8.23;;;4.00;;
16579;SDS011;8402;51.466;6.806;2022-11-15T05:05:58;5.73;;;3.80;;
16579;SDS011;8402;51.466;6.806;2022-11-15T05:08:26;6.43;;;3.70;;
16579;SDS011;8402;51.466;6.806;2022-11-15T05:10:54;7.30;;;4.20;;
16579;SDS011;8402;51.466;6.806;2022-11-15T05:13:22;5.07;;;3.70;;
16579;SDS011;8402;51.466;6.806;2022-11-15T05:15:50;7.23;;;4.20;;
16579;SDS011;8402;51.466;6.806;2022-11-15T05:18:18;6.03;;;3.63;;
16579;SDS011;8402;51.466;6.806;2022-11-15T05:20:49;6.90;;;3.73;;
16579;SDS011;8402;51.466;6.806;2022-11-15T05:23:18;6.80;;;3.93;;
16579;SDS011;8402;51.466;6.806;2022-11-15T05:25:46;6.27;;;3.70;;
16579;SDS011;8402;51.466;6.806;2022-11-15T05:28:14;5.80;;;3.73;;
16579;SDS011;8402;51.466;6.806;2022-11-15T05:30:42;6.90;;;3.80;;
16579;SDS011;8402;51.466;6.806;2022-11-15T05:33:10;6.57;;;3.73;;
16579;SDS011;8402;51.466;6.806;2022-11-15T05:35:38;5.40;;;3.50;;
16579;SDS011;8402;51.466;6.806;2022-11-15T05:38:08;7.97;;;3.97;;
16579;SDS011;8402;51.466;6.806;2022-11-15T05:40:38;7.23;;;3.67;;
16579;SDS011;8402;51.466;6.806;2022-11-15T05:43:06;4.93;;;3.77;;
16579;SDS011;8402;51.466;6.806;2022-11-15T05:45:34;6.53;;;4.10;;
16579;SDS011;8402;51.466;6.806;2022-11-15T05:48:04;5.37;;;3.30;;
16579;SDS011;8402;51.466;6.806;2022-11-15T05:50:36;8.00;;;3.90;;
16579;SDS011;8402;51.466;6.806;2022-11-15T05:53:05;9.23;;;4.10;;
16579;SDS011;8402;51.466;6.806;2022-11-15T05:55:33;7.40;;;4.13;;
16579;SDS011;8402;51.466;6.806;2022-11-15T05:58:03;6.40;;;4.63;;
16579;SDS011;8402;51.466;6.806;2022-11-15T06:00:31;5.97;;;4.20;;
16579;SDS011;8402;51.466;6.806;2022-11-15T06:02:59;7.50;;;4.30;;
16579;SDS011;8402;51.466;6.806;2022-11-15T06:05:27;8.93;;;4.77;;
16579;SDS011;8402;51.466;6.806;2022-11-15T06:07:56;7.17;;;4.63;;
16579;SDS011;8402;51.466;6.806;2022-11-15T06:10:24;7.03;;;4.60;;
16579;SDS011;8402;51.466;6.806;2022-11-15T06:12:56;7.43;;;4.93;;
16579;SDS011;8402;51.466;6.806;2022-11-15T06:15:26;8.43;;;4.97;;
16579;SDS011;8402;51.466;6.806;2022-11-15T06:17:55;6.80;;;4.20;;
16579;SDS011;8402;51.466;6.806;2022-11-15T06:20:24;7.40;;;4.33;;
16579;SDS011;8402;51.466;6.806;2022-11-15T06:22:56;7.80;;;4.80;;
16579;SDS011;8402;51.466;6.806;2022-11-15T06:25:24;8.67;;;4.00;;
16579;SDS011;8402;51.466;6.806;2022-11-15T06:27:53;6.40;;;4.33;;
16579;SDS011;8402;51.466;6.806;2022-11-15T06:30:21;8.17;;;4.37;;
16579;SDS011;8402;51.466;6.806;2022-11-15T06:32:52;7.60;;;4.53;;
16579;SDS011;8402;51.466;6.806;2022-11-15T06:35:26;9.50;;;4.77;;
16579;SDS011;8402;51.466;6.806;2022-11-15T06:37:54;7.30;;;5.00;;
16579;SDS011;8402;51.466;6.806;2022-11-15T06:40:22;7.47;;;5.03;;
16579;SDS011;8402;51.466;6.806;2022-11-15T06:42:50;7.50;;;4.43;;
16579;SDS011;8402;51.466;6.806;2022-11-15T06:45:18;6.90;;;4.47;;
16579;SDS011;8402;51.466;6.806;2022-11-15T06:47:46;6.87;;;4.63;;
16579;SDS011;8402;51.466;6.806;2022-11-15T06:50:15;6.20;;;4.20;;
16579;SDS011;8402;51.466;6.806;2022-11-15T06:52:43;6.67;;;3.80;;
16579;SDS011;8402;51.466;6.806;2022-11-15T06:55:11;7.90;;;4.83;;
16579;SDS011;8402;51.466;6.806;2022-11-15T06:57:45;5.93;;;4.00;;
16579;SDS011;8402;51.466;6.806;2022-11-15T07:00:15;5.20;;;3.37;;
16579;SDS011;8402;51.466;6.806;2022-11-15T07:02:44;5.73;;;3.83;;
16579;SDS011;8402;51.466;6.806;2022-11-15T07:05:12;5.43;;;3.80;;
16579;SDS011;8402;51.466;6.806;2022-11-15T07:07:42;8.40;;;4.33;;
16579;SDS011;8402;51.466;6.806;2022-11-15T07:10:10;5.20;;;3.77;;
16579;SDS011;8402;51.466;6.806;2022-11-15T07:12:38;5.13;;;3.37;;
16579;SDS011;8402;51.466;6.806;2022-11-15T07:15:06;6.33;;;3.37;;
16579;SDS011;8402;51.466;6.806;2022-11-15T07:17:36;6.17;;;3.83;;
16579;SDS011;8402;51.466;6.806;2022-11-15T07:20:04;5.63;;;3.73;;
16579;SDS011;8402;51.466;6.806;2022-11-15T07:22:32;6.23;;;4.03;;
16579;SDS011;8402;51.466;6.806;2022-11-15T07:25:02;5.20;;;3.70;;
16579;SDS011;8402;51.466;6.806;2022-11-15T07:27:30;5.67;;;3.90;;
16579;SDS011;8402;51.466;6.806;2022-11-15T07:29:59;5.00;;;3.63;;
16579;SDS011;8402;51.466;6.806;2022-11-15T07:32:27;5.20;;;3.57;;
16579;SDS011;8402;51.466;6.806;2022-11-15T07:34:55;5.57;;;3.87;;
16579;SDS011;8402;51.466;6.806;2022-11-15T07:37:22;4.97;;;3.20;;
16579;SDS011;8402;51.466;6.806;2022-11-15T07:39:50;4.77;;;3.27;;
16579;SDS011;8402;51.466;6.806;2022-11-15T07:42:20;3.87;;;2.93;;
16579;SDS011;8402;51.466;6.806;2022-11-15T07:45:05;4.27;;;2.80;;
16579;SDS011;8402;51.466;6.806;2022-11-15T07:47:33;4.50;;;2.60;;
16579;SDS011;8402;51.466;6.806;2022-11-15T07:50:02;5.07;;;3.20;;
16579;SDS011;8402;51.466;6.806;2022-11-15T07:52:30;5.60;;;3.20;;
16579;SDS011;8402;51.466;6.806;2022-11-15T07:54:58;7.40;;;3.00;;
16579;SDS011;8402;51.466;6.806;2022-11-15T07:57:27;4.73;;;3.03;;
16579;SDS011;8402;51.466;6.806;2022-11-15T07:59:57;3.93;;;2.93;;
16579;SDS011;8402;51.466;6.806;2022-11-15T08:02:25;5.37;;;2.90;;
16579;SDS011;8402;51.466;6.806;2022-11-15T08:04:55;7.17;;;3.37;;
16579;SDS011;8402;51.466;6.806;2022-11-15T08:07:24;8.27;;;2.67;;
16579;SDS011;8402;51.466;6.806;2022-11-15T08:09:52;3.30;;;2.00;;
16579;SDS011;8402;51.466;6.806;2022-11-15T08:12:21;4.50;;;1.97;;
16579;SDS011;8402;51.466;6.806;2022-11-15T08:14:51;2.90;;;1.57;;
16579;SDS011;8402;51.466;6.806;2022-11-15T08:17:18;3.37;;;1.70;;
16579;SDS011;8402;51.466;6.806;2022-11-15T08:19:46;2.20;;;1.50;;
16579;SDS011;8402;51.466;6.806;2022-11-15T08:22:14;6.20;;;1.70;;
16579;SDS011;8402;51.466;6.806;2022-11-15T08:24:43;4.57;;;1.60;;
16579;SDS011;8402;51.466;6.806;2022-11-15T08:27:11;3.17;;;2.10;;
16579;SDS011;8402;51.466;6.806;2022-11-15T08:29:42;8.57;;;2.80;;
16579;SDS011;8402;51.466;6.806;2022-11-15T08:32:12;5.57;;;2.43;;
16579;SDS011;8402;51.466;6.806;2022-11-15T08:34:40;6.63;;;2.33;;
16579;SDS011;8402;51.466;6.806;2022-11-15T08:37:08;3.23;;;2.20;;
16579;SDS011;8402;51.466;6.806;2022-11-15T08:39:36;3.70;;;2.07;;
16579;SDS011;8402;51.466;6.806;2022-11-15T08:42:04;8.57;;;2.70;;
16579;SDS011;8402;51.466;6.806;2022-11-15T08:44:33;8.17;;;1.80;;
16579;SDS011;8402;51.466;6.806;2022-11-15T08:47:01;2.97;;;1.90;;
16579;SDS011;8402;51.466;6.806;2022-11-15T08:49:30;3.40;;;1.70;;
16579;SDS011;8402;51.466;6.806;2022-11-15T08:51:58;12.80;;;2.00;;
16579;SDS011;8402;51.466;6.806;2022-11-15T08:54:26;4.57;;;1.63;;
16579;SDS011;8402;51.466;6.806;2022-11-15T08:56:54;5.87;;;1.73;;
16579;SDS011;8402;51.466;6.806;2022-11-15T08:59:22;2.93;;;1.50;;
16579;SDS011;8402;51.466;6.806;2022-11-15T09:01:50;3.93;;;1.40;;
16579;SDS011;8402;51.466;6.806;2022-11-15T09:04:18;2.20;;;1.20;;
16579;SDS011;8402;51.466;6.806;2022-11-15T09:06:48;3.77;;;1.27;;
16579;SDS011;8402;51.466;6.806;2022-11-15T09:09:16;5.33;;;1.60;;
16579;SDS011;8402;51.466;6.806;2022-11-15T09:11:44;2.33;;;1.20;;
16579;SDS011;8402;51.466;6.806;2022-11-15T09:14:13;1.77;;;1.10;;
16579;SDS011;8402;51.466;6.806;2022-11-15T09:16:42;2.17;;;1.17;;
16579;SDS011;8402;51.466;6.806;2022-11-15T09:19:10;3.57;;;1.40;;
16579;SDS011;8402;51.466;6.806;2022-11-15T09:21:38;2.17;;;1.50;;
16579;SDS011;8402;51.466;6.806;2022-11-15T09:24:07;3.37;;;1.63;;
16579;SDS011;8402;51.466;6.806;2022-11-15T09:26:36;3.67;;;1.60;;
16579;SDS011;8402;51.466;6.806;2022-11-15T09:29:06;2.83;;;1.50;;
16579;SDS011;8402;51.466;6.806;2022-11-15T09:31:35;3.27;;;1.67;;
16579;SDS011;8402;51.466;6.806;2022-11-15T09:34:03;3.20;;;1.97;;
16579;SDS011;8402;51.466;6.806;2022-11-15T09:36:30;3.80;;;1.90;;
16579;SDS011;8402;51.466;6.806;2022-11-15T09:38:58;3.00;;;1.70;;
16579;SDS011;8402;51.466;6.806;2022-11-15T09:41:37;3.17;;;2.10;;
16579;SDS011;8402;51.466;6.806;2022-11-15T09:44:24;4.20;;;2.20;;
16579;SDS011;8402;51.466;6.806;2022-11-15T09:47:10;4.63;;;2.40;;
16579;SDS011;8402;51.466;6.806;2022-11-15T09:50:00;5.03;;;2.60;;
16579;SDS011;8402;51.466;6.806;2022-11-15T09:52:29;4.30;;;2.53;;
16579;SDS011;8402;51.466;6.806;2022-11-15T09:54:57;4.23;;;2.47;;
16579;SDS011;8402;51.466;6.806;2022-11-15T09:57:29;4.47;;;2.40;;
16579;SDS011;8402;51.466;6.806;2022-11-15T10:00:04;4.17;;;2.40;;
16579;SDS011;8402;51.466;6.806;2022-11-15T10:03:00;6.63;;;2.57;;
16579;SDS011;8402;51.466;6.806;2022-11-15T10:05:38;4.33;;;2.00;;
16579;SDS011;8402;51.466;6.806;2022-11-15T10:08:13;3.57;;;1.77;;
16579;SDS011;8402;51.466;6.806;2022-11-15T10:10:55;2.70;;;1.63;;
16579;SDS011;8402;51.466;6.806;2022-11-15T10:13:46;5.60;;;1.90;;
16579;SDS011;8402;51.466;6.806;2022-11-15T10:16:24;3.10;;;1.57;;
16579;SDS011;8402;51.466;6.806;2022-11-15T10:19:11;2.57;;;1.47;;
16579;SDS011;8402;51.466;6.806;2022-11-15T10:21:49;2.97;;;1.47;;
16579;SDS011;8402;51.466;6.806;2022-11-15T10:24:27;1.77;;;1.30;;
16579;SDS011;8402;51.466;6.806;2022-11-15T10:26:56;3.20;;;1.30;;
16579;SDS011;8402;51.466;6.806;2022-11-15T10:29:26;3.77;;;1.60;;
16579;SDS011;8402;51.466;6.806;2022-11-15T10:31:54;1.77;;;1.10;;
16579;SDS011;8402;51.466;6.806;2022-11-15T10:34:22;3.47;;;1.40;;
16579;SDS011;8402;51.466;6.806;2022-11-15T10:36:54;2.03;;;1.40;;
16579;SDS011;8402;51.466;6.806;2022-11-15T10:39:23;2.63;;;1.30;;
16579;SDS011;8402;51.466;6.806;2022-11-15T10:41:52;2.60;;;1.27;;
16579;SDS011;8402;51.466;6.806;2022-11-15T10:44:21;4.43;;;1.47;;
16579;SDS011;8402;51.466;6.806;2022-11-15T10:50:11;6.57;;;1.20;;
16579;SDS011;8402;51.466;6.806;2022-11-15T10:52:54;7.30;;;1.43;;
16579;SDS011;8402;51.466;6.806;2022-11-15T10:55:24;2.23;;;1.20;;
16579;SDS011;8402;51.466;6.806;2022-11-15T10:57:55;3.30;;;0.93;;
16579;SDS011;8402;51.466;6.806;2022-11-15T11:00:30;2.57;;;1.10;;
16579;SDS011;8402;51.466;6.806;2022-11-15T11:03:02;3.67;;;1.23;;
16579;SDS011;8402;51.466;6.806;2022-11-15T11:05:38;3.60;;;1.30;;
16579;SDS011;8402;51.466;6.806;2022-11-15T11:08:22;5.03;;;1.30;;
16579;SDS011;8402;51.466;6.806;2022-11-15T11:10:54;1.97;;;1.10;;
16579;SDS011;8402;51.466;6.806;2022-11-15T11:13:29;1.70;;;1.10;;
16579;SDS011;8402;51.466;6.806;2022-11-15T11:16:00;1.23;;;1.00;;
16579;SDS011;8402;51.466;6.806;2022-11-15T11:18:49;4.27;;;1.00;;
16579;SDS011;8402;51.466;6.806;2022-11-15T11:21:26;3.10;;;1.20;;
16579;SDS011;8402;51.466;6.806;2022-11-15T11:24:07;1.10;;;0.87;;
16579;SDS011;8402;51.466;6.806;2022-11-15T11:26:43;2.40;;;1.10;;
16579;SDS011;8402;51.466;6.806;2022-11-15T11:29:28;4.57;;;1.00;;
16579;SDS011;8402;51.466;6.806;2022-11-15T11:32:07;3.30;;;1.10;;
16579;SDS011;8402;51.466;6.806;2022-11-15T11:34:52;3.30;;;1.00;;
16579;SDS011;8402;51.466;6.806;2022-11-15T11:37:29;5.60;;;1.27;;
16579;SDS011;8402;51.466;6.806;2022-11-15T11:40:07;6.73;;;1.50;;
16579;SDS011;8402;51.466;6.806;2022-11-15T11:42:45;2.07;;;0.90;;
16579;SDS011;8402;51.466;6.806;2022-11-15T11:45:31;3.13;;;1.07;;
16579;SDS011;8402;51.466;6.806;2022-11-15T11:48:19;2.03;;;0.70;;
16579;SDS011;8402;51.466;6.806;2022-11-15T11:50:57;2.30;;;0.90;;
16579;SDS011;8402;51.466;6.806;2022-11-15T11:53:35;2.67;;;0.97;;
16579;SDS011;8402;51.466;6.806;2022-11-15T11:56:10;4.30;;;1.33;;
16579;SDS011;8402;51.466;6.806;2022-11-15T11:58:46;2.30;;;1.03;;
16579;SDS011;8402;51.466;6.806;2022-11-15T12:01:16;3.70;;;0.77;;
16579;SDS011;8402;51.466;6.806;2022-11-15T12:03:50;3.87;;;1.07;;
16579;SDS011;8402;51.466;6.806;2022-11-15T12:06:24;3.03;;;0.90;;
16579;SDS011;8402;51.466;6.806;2022-11-15T12:09:02;1.50;;;0.70;;
16579;SDS011;8402;51.466;6.806;2022-11-15T12:11:36;1.87;;;0.70;;
16579;SDS011;8402;51.466;6.806;2022-11-15T12:14:12;1.20;;;0.73;;
16579;SDS011;8402;51.466;6.806;2022-11-15T12:16:50;3.90;;;0.87;;
16579;SDS011;8402;51.466;6.806;2022-11-15T12:19:18;2.20;;;0.97;;
16579;SDS011;8402;51.466;6.806;2022-11-15T12:21:46;2.50;;;0.90;;
16579;SDS011;8402;51.466;6.806;2022-11-15T12:24:19;5.03;;;1.00;;
16579;SDS011;8402;51.466;6.806;2022-11-15T12:26:53;1.47;;;0.70;;
16579;SDS011;8402;51.466;6.806;2022-11-15T12:29:28;3.10;;;0.70;;
16579;SDS011;8402;51.466;6.806;2022-11-15T12:31:59;1.90;;;0.80;;
16579;SDS011;8402;51.466;6.806;2022-11-15T12:34:34;3.60;;;0.70;;
16579;SDS011;8402;51.466;6.806;2022-11-15T12:40:16;3.10;;;0.80;;
16579;SDS011;8402;51.466;6.806;2022-11-15T12:42:57;1.87;;;0.80;;
16579;SDS011;8402;51.466;6.806;2022-11-15T12:45:52;5.73;;;0.90;;
16579;SDS011;8402;51.466;6.806;2022-11-15T12:51:14;1.47;;;0.60;;
16579;SDS011;8402;51.466;6.806;2022-11-15T12:53:43;4.80;;;0.83;;
16579;SDS011;8402;51.466;6.806;2022-11-15T12:56:22;4.53;;;1.10;;
16579;SDS011;8402;51.466;6.806;2022-11-15T12:58:52;8.97;;;0.70;;
16579;SDS011;8402;51.466;6.806;2022-11-15T13:04:28;2.43;;;0.70;;
16579;SDS011;8402;51.466;6.806;2022-11-15T13:06:59;1.93;;;0.73;;
16579;SDS011;8402;51.466;6.806;2022-11-15T13:15:33;2.97;;;0.90;;
16579;SDS011;8402;51.466;6.806;2022-11-15T13:21:19;1.50;;;0.97;;
16579;SDS011;8402;51.466;6.806;2022-11-15T13:24:10;2.27;;;0.50;;
16579;SDS011;8402;51.466;6.806;2022-11-15T13:26:40;1.43;;;0.60;;
16579;SDS011;8402;51.466;6.806;2022-11-15T13:29:15;3.87;;;0.80;;
16579;SDS011;8402;51.466;6.806;2022-11-15T13:31:45;2.30;;;0.90;;
16579;SDS011;8402;51.466;6.806;2022-11-15T13:34:20;2.33;;;0.70;;
16579;SDS011;8402;51.466;6.806;2022-11-15T13:37:12;1.40;;;0.60;;
16579;SDS011;8402;51.466;6.806;2022-11-15T13:39:57;3.50;;;0.80;;
16579;SDS011;8402;51.466;6.806;2022-11-15T13:42:44;4.27;;;1.20;;
16579;SDS011;8402;51.466;6.806;2022-11-15T13:45:14;5.43;;;1.07;;
16579;SDS011;8402;51.466;6.806;2022-11-15T13:47:44;1.70;;;0.77;;
16579;SDS011;8402;51.466;6.806;2022-11-15T13:50:19;6.93;;;1.20;;
16579;SDS011;8402;51.466;6.806;2022-11-15T13:52:52;4.53;;;1.10;;
16579;SDS011;8402;51.466;6.806;2022-11-15T13:55:21;2.63;;;0.90;;
16579;SDS011;8402;51.466;6.806;2022-11-15T13:57:51;2.90;;;1.00;;
16579;SDS011;8402;51.466;6.806;2022-11-15T14:00:34;5.30;;;0.83;;
16579;SDS011;8402;51.466;6.806;2022-11-15T14:03:05;2.27;;;0.80;;
16579;SDS011;8402;51.466;6.806;2022-11-15T14:05:40;4.70;;;0.97;;
16579;SDS011;8402;51.466;6.806;2022-11-15T14:08:13;2.03;;;0.73;;
16579;SDS011;8402;51.466;6.806;2022-11-15T14:13:33;3.63;;;1.00;;
16579;SDS011;8402;51.466;6.806;2022-11-15T14:16:19;4.93;;;0.80;;
16579;SDS011;8402;51.466;6.806;2022-11-15T14:18:48;1.97;;;0.93;;
16579;SDS011;8402;51.466;6.806;2022-11-15T14:21:18;2.83;;;0.70;;
16579;SDS011;8402;51.466;6.806;2022-11-15T14:23:47;2.10;;;0.80;;
16579;SDS011;8402;51.466;6.806;2022-11-15T14:26:26;5.80;;;1.10;;
16579;SDS011;8402;51.466;6.806;2022-11-15T14:28:57;3.03;;;0.80;;
16579;SDS011;8402;51.466;6.806;2022-11-15T14:31:46;3.77;;;1.10;;
16579;SDS011;8402;51.466;6.806;2022-11-15T14:34:14;3.17;;;0.90;;
16579;SDS011;8402;51.466;6.806;2022-11-15T14:36:42;5.13;;;1.10;;
16579;SDS011;8402;51.466;6.806;2022-11-15T14:39:10;2.30;;;1.03;;
16579;SDS011;8402;51.466;6.806;2022-11-15T14:41:38;1.77;;;0.90;;
16579;SDS011;8402;51.466;6.806;2022-11-15T14:44:06;2.53;;;1.17;;
16579;SDS011;8402;51.466;6.806;2022-11-15T14:46:38;1.67;;;0.97;;
16579;SDS011;8402;51.466;6.806;2022-11-15T14:49:07;3.10;;;1.17;;
16579;SDS011;8402;51.466;6.806;2022-11-15T14:51:35;2.37;;;1.20;;
16579;SDS011;8402;51.466;6.806;2022-11-15T14:54:04;3.40;;;1.10;;
16579;SDS011;8402;51.466;6.806;2022-11-15T14:56:32;2.77;;;1.30;;
16579;SDS011;8402;51.466;6.806;2022-11-15T14:59:00;3.67;;;1.30;;
16579;SDS011;8402;51.466;6.806;2022-11-15T15:01:27;4.30;;;1.50;;
16579;SDS011;8402;51.466;6.806;2022-11-15T15:03:55;4.13;;;1.33;;
16579;SDS011;8402;51.466;6.806;2022-11-15T15:06:26;4.20;;;1.50;;
16579;SDS011;8402;51.466;6.806;2022-11-15T15:08:54;2.77;;;1.30;;
16579;SDS011;8402;51.466;6.806;2022-11-15T15:11:23;4.77;;;2.80;;
16579;SDS011;8402;51.466;6.806;2022-11-15T15:13:52;4.27;;;2.07;;
16579;SDS011;8402;51.466;6.806;2022-11-15T15:16:23;5.73;;;1.50;;
16579;SDS011;8402;51.466;6.806;2022-11-15T15:18:51;2.20;;;1.50;;
16579;SDS011;8402;51.466;6.806;2022-11-15T15:21:20;4.50;;;1.53;;
16579;SDS011;8402;51.466;6.806;2022-11-15T15:23:50;7.13;;;2.30;;
16579;SDS011;8402;51.466;6.806;2022-11-15T15:26:20;5.23;;;2.40;;
16579;SDS011;8402;51.466;6.806;2022-11-15T15:28:48;7.83;;;2.27;;
16579;SDS011;8402;51.466;6.806;2022-11-15T15:31:17;8.30;;;3.03;;
16579;SDS011;8402;51.466;6.806;2022-11-15T15:33:45;5.77;;;2.30;;
16579;SDS011;8402;51.466;6.806;2022-11-15T15:36:14;6.30;;;1.97;;
16579;SDS011;8402;51.466;6.806;2022-11-15T15:38:45;6.07;;;2.20;;
16579;SDS011;8402;51.466;6.806;2022-11-15T15:41:15;4.63;;;2.47;;
16579;SDS011;8402;51.466;6.806;2022-11-15T15:43:44;6.80;;;3.27;;
16579;SDS011;8402;51.466;6.806;2022-11-15T15:46:13;4.27;;;2.60;;
16579;SDS011;8402;51.466;6.806;2022-11-15T15:48:42;4.03;;;2.70;;
16579;SDS011;8402;51.466;6.806;2022-11-15T15:51:11;4.33;;;2.40;;
16579;SDS011;8402;51.466;6.806;2022-11-15T15:53:45;4.50;;;2.57;;
16579;SDS011;8402;51.466;6.806;2022-11-15T15:56:15;4.57;;;2.40;;